createdAt,value
2018-09-06T00:01:58.346Z,99.90
2018-09-06T00:04:24.647Z,99.90
2018-09-06T00:06:51.065Z,99.90
2018-09-06T00:09:17.459Z,99.90
2018-09-06T00:11:43.854Z,99.90
2018-09-06T00:14:11.120Z,99.90
2018-09-06T00:16:38.324Z,99.90
2018-09-06T00:19:04.835Z,99.90
2018-09-06T00:21:31.273Z,99.90
2018-09-06T00:23:57.803Z,99.90
2018-09-06T00:26:24.143Z,99.90
2018-09-06T00:28:50.458Z,99.90
2018-09-06T00:31:17.057Z,99.90
2018-09-06T00:33:43.773Z,99.90
2018-09-06T00:36:10.150Z,99.90
2018-09-06T00:38:37.327Z,99.90
2018-09-06T00:41:03.669Z,99.90
2018-09-06T00:43:29.979Z,99.90
2018-09-06T00:45:57.104Z,99.90
2018-09-06T00:48:23.523Z,99.90
2018-09-06T00:50:49.907Z,99.90
2018-09-06T00:53:16.301Z,99.90
2018-09-06T00:55:42.725Z,99.90
2018-09-06T00:58:09.844Z,99.90
2018-09-06T01:00:36.305Z,99.90
2018-09-06T01:03:02.736Z,99.90
2018-09-06T01:05:29.297Z,99.90
2018-09-06T01:07:55.712Z,99.90
2018-09-06T01:10:22.757Z,99.90
2018-09-06T01:12:49.052Z,99.90
2018-09-06T01:15:15.390Z,99.90
2018-09-06T01:17:41.690Z,99.90
2018-09-06T01:20:08.959Z,99.90
2018-09-06T01:22:35.502Z,99.90
2018-09-06T01:25:02.083Z,99.90
2018-09-06T01:27:28.607Z,99.90
2018-09-06T01:29:54.885Z,99.90
2018-09-06T01:32:21.153Z,99.90
2018-09-06T01:34:47.446Z,99.90
2018-09-06T01:37:14.441Z,99.90
2018-09-06T01:39:40.822Z,99.90
2018-09-06T01:42:07.845Z,99.90
2018-09-06T01:44:34.213Z,99.90
2018-09-06T01:47:01.251Z,99.90
2018-09-06T01:49:28.244Z,99.90
2018-09-06T01:51:54.526Z,99.90
2018-09-06T01:54:21.516Z,99.90
2018-09-06T01:56:47.805Z,99.90
2018-09-06T01:59:14.802Z,99.90
2018-09-06T02:01:41.111Z,99.90
2018-09-06T02:04:07.377Z,99.90
2018-09-06T02:06:33.658Z,99.90
2018-09-06T02:08:59.964Z,99.90
2018-09-06T02:11:26.234Z,99.90
2018-09-06T02:13:52.545Z,99.90
2018-09-06T02:16:19.566Z,99.90
2018-09-06T02:18:45.834Z,99.90
2018-09-06T02:21:12.117Z,99.90
2018-09-06T02:23:38.362Z,99.90
2018-09-06T02:26:04.665Z,99.90
2018-09-06T02:28:30.942Z,99.90
2018-09-06T02:30:57.237Z,99.90
2018-09-06T02:33:23.522Z,99.90
2018-09-06T02:35:49.830Z,99.90
2018-09-06T02:38:16.824Z,99.90
2018-09-06T02:40:43.090Z,99.90
2018-09-06T02:43:09.354Z,99.90
2018-09-06T02:45:36.362Z,99.90
2018-09-06T02:48:02.618Z,99.90
2018-09-06T02:50:46.472Z,99.90
2018-09-06T02:53:13.461Z,99.90
2018-09-06T02:55:49.750Z,99.90
2018-09-06T02:58:16.010Z,99.90
2018-09-06T03:00:43.054Z,99.90
2018-09-06T03:03:09.315Z,99.90
2018-09-06T03:05:35.600Z,99.90
2018-09-06T03:08:01.877Z,99.90
2018-09-06T03:10:28.166Z,99.90
2018-09-06T03:12:54.441Z,99.90
2018-09-06T03:15:20.714Z,99.90
2018-09-06T03:17:47.029Z,99.90
2018-09-06T03:20:13.290Z,99.90
2018-09-06T03:22:40.332Z,99.90
2018-09-06T03:25:06.586Z,99.90
2018-09-06T03:27:33.597Z,99.90
2018-09-06T03:29:59.873Z,99.90
2018-09-06T03:32:26.911Z,99.90
2018-09-06T03:34:53.185Z,99.90
2018-09-06T03:37:19.490Z,99.90
2018-09-06T03:39:46.542Z,99.90
2018-09-06T03:42:12.794Z,99.90
2018-09-06T03:44:39.084Z,99.90
2018-09-06T03:47:06.089Z,99.90
2018-09-06T03:49:32.344Z,99.90
2018-09-06T03:51:58.650Z,99.90
2018-09-06T03:54:24.889Z,99.90
2018-09-06T03:56:51.173Z,99.90
2018-09-06T03:59:18.171Z,99.90
2018-09-06T04:01:44.408Z,99.90
2018-09-06T04:04:10.732Z,99.90
2018-09-06T04:06:36.979Z,99.90
2018-09-06T04:09:03.997Z,99.90
2018-09-06T04:11:30.278Z,99.90
2018-09-06T04:13:57.326Z,99.90
2018-09-06T04:16:24.337Z,99.90
2018-09-06T04:18:50.616Z,99.90
2018-09-06T04:21:16.894Z,99.90
2018-09-06T04:23:43.181Z,99.90
2018-09-06T04:26:09.946Z,99.90
2018-09-06T04:28:36.255Z,99.90
2018-09-06T04:31:02.638Z,99.90
2018-09-06T04:33:28.913Z,99.90
2018-09-06T04:35:55.218Z,99.90
2018-09-06T04:38:30.113Z,99.90
2018-09-06T04:41:03.029Z,99.90
2018-09-06T04:43:29.317Z,99.90
2018-09-06T04:45:55.578Z,99.90
2018-09-06T04:48:23.397Z,99.90
2018-09-06T04:50:49.646Z,99.90
2018-09-06T04:53:15.914Z,99.90
2018-09-06T04:55:42.166Z,99.90
2018-09-06T04:58:09.149Z,99.90
2018-09-06T05:00:35.442Z,99.90
2018-09-06T05:03:02.715Z,99.90
2018-09-06T05:05:29.721Z,99.90
2018-09-06T05:07:56.005Z,99.90
2018-09-06T05:10:22.249Z,99.90
2018-09-06T05:15:21.769Z,99.90
2018-09-06T05:17:50.299Z,99.90
2018-09-06T05:20:16.594Z,99.90
2018-09-06T05:22:42.857Z,99.90
2018-09-06T05:25:09.134Z,99.90
2018-09-06T05:27:35.410Z,99.90
2018-09-06T05:30:01.693Z,99.90
2018-09-06T05:32:27.993Z,99.90
2018-09-06T05:34:54.981Z,99.90
2018-09-06T05:37:22.144Z,99.90
2018-09-06T05:39:49.220Z,99.90
2018-09-06T05:42:15.870Z,99.90
2018-09-06T05:44:42.377Z,99.90
2018-09-06T05:47:11.158Z,99.90
2018-09-06T05:49:38.245Z,99.90
2018-09-06T05:52:06.009Z,99.90
2018-09-06T05:54:42.094Z,99.90
2018-09-06T05:57:09.382Z,99.90
2018-09-06T05:59:37.304Z,99.90
2018-09-06T06:02:04.371Z,99.90
2018-09-06T06:04:32.120Z,99.90
2018-09-06T06:06:58.427Z,99.90
2018-09-06T06:09:24.705Z,99.90
2018-09-06T06:11:51.757Z,99.90
2018-09-06T06:14:17.996Z,99.90
2018-09-06T06:16:45.017Z,99.90
2018-09-06T06:19:11.298Z,99.90
2018-09-06T06:21:37.585Z,99.90
2018-09-06T06:24:03.870Z,99.90
2018-09-06T06:26:30.145Z,99.90
2018-09-06T06:29:04.198Z,99.90
2018-09-06T06:31:30.607Z,99.90
2018-09-06T06:33:56.909Z,99.90
2018-09-06T06:36:23.189Z,99.90
2018-09-06T06:38:49.478Z,99.90
2018-09-06T06:41:15.726Z,99.90
2018-09-06T06:43:42.742Z,99.90
2018-09-06T06:46:09.045Z,99.90
2018-09-06T06:48:35.313Z,99.90
2018-09-06T06:51:01.654Z,99.90
2018-09-06T06:53:28.693Z,99.90
2018-09-06T06:55:54.993Z,99.90
2018-09-06T06:58:21.309Z,99.90
2018-09-06T07:00:47.666Z,99.90
2018-09-06T07:03:13.869Z,99.90
2018-09-06T07:05:40.189Z,99.90
2018-09-06T07:08:06.449Z,99.90
2018-09-06T07:10:32.695Z,99.90
2018-09-06T07:12:58.954Z,99.90
2018-09-06T07:15:25.926Z,99.90
2018-09-06T07:17:52.206Z,99.90
2018-09-06T07:20:18.448Z,99.90
2018-09-06T07:22:44.698Z,99.90
2018-09-06T07:25:11.713Z,99.90
2018-09-06T07:27:37.960Z,99.90
2018-09-06T07:30:04.248Z,99.90
2018-09-06T07:32:30.499Z,99.90
2018-09-06T07:34:56.803Z,99.90
2018-09-06T07:37:23.033Z,99.90
2018-09-06T07:39:49.297Z,99.90
2018-09-06T07:42:15.549Z,99.90
2018-09-06T07:44:42.641Z,99.90
2018-09-06T07:47:08.876Z,99.90
2018-09-06T07:49:35.169Z,99.90
2018-09-06T07:52:02.186Z,99.90
2018-09-06T07:54:28.528Z,99.90
2018-09-06T07:56:54.760Z,99.90
2018-09-06T07:59:21.042Z,99.90
2018-09-06T08:01:47.280Z,99.90
2018-09-06T08:04:13.510Z,99.90
2018-09-06T08:06:39.837Z,99.90
2018-09-06T08:09:06.088Z,99.90
2018-09-06T08:11:32.338Z,99.90
2018-09-06T08:13:58.779Z,99.90
2018-09-06T08:16:25.051Z,99.90
2018-09-06T08:18:51.350Z,99.90
2018-09-06T08:21:21.130Z,99.90
2018-09-06T08:23:47.394Z,99.90
2018-09-06T08:26:14.484Z,99.90
2018-09-06T08:28:42.079Z,99.90
2018-09-06T08:31:08.500Z,99.90
2018-09-06T08:33:35.030Z,99.90
2018-09-06T08:36:01.344Z,99.90
2018-09-06T08:38:28.098Z,99.90
2018-09-06T08:40:54.374Z,99.90
2018-09-06T08:43:20.687Z,99.90
2018-09-06T08:45:47.707Z,99.60
2018-09-06T08:48:14.052Z,98.80
2018-09-06T08:50:40.589Z,98.30
2018-09-06T08:53:08.107Z,97.60
2018-09-06T08:55:34.425Z,97.70
2018-09-06T08:58:01.230Z,97.30
2018-09-06T09:00:27.699Z,97.40
2018-09-06T09:02:54.112Z,97.40
2018-09-06T09:05:20.332Z,98.10
2018-09-06T09:07:47.305Z,97.30
2018-09-06T09:10:14.530Z,97.20
2018-09-06T09:12:42.664Z,97.10
2018-09-06T09:17:48.709Z,98.20
2018-09-06T09:20:17.036Z,98.60
2018-09-06T09:22:44.322Z,98.80
2018-09-06T09:25:13.598Z,98.90
2018-09-06T09:27:42.519Z,98.90
2018-09-06T09:30:10.019Z,99.30
2018-09-06T09:32:37.697Z,99.60
2018-09-06T09:35:10.933Z,99.90
2018-09-06T09:37:37.285Z,99.90
2018-09-06T09:40:04.551Z,99.90
2018-09-06T09:42:31.814Z,99.90
2018-09-06T09:45:01.527Z,99.90
2018-09-06T09:50:00.012Z,99.90
2018-09-06T09:52:26.406Z,99.90
2018-09-06T09:54:53.010Z,99.90
2018-09-06T09:57:20.171Z,99.90
2018-09-06T09:59:46.803Z,99.90
2018-09-06T10:02:13.371Z,99.90
2018-09-06T10:04:43.814Z,99.90
2018-09-06T10:07:10.375Z,99.90
2018-09-06T10:09:36.986Z,99.90
2018-09-06T10:12:08.228Z,99.90
2018-09-06T10:14:37.557Z,99.90
2018-09-06T10:17:04.475Z,99.90
2018-09-06T10:19:50.808Z,99.90
2018-09-06T10:22:19.132Z,99.90
2018-09-06T10:24:46.679Z,99.90
2018-09-06T10:27:13.023Z,99.90
2018-09-06T10:29:39.342Z,99.90
2018-09-06T10:32:05.671Z,99.90
2018-09-06T10:34:32.003Z,99.90
2018-09-06T10:36:58.311Z,99.90
2018-09-06T10:39:24.785Z,99.90
2018-09-06T10:41:50.994Z,99.90
2018-09-06T10:44:17.316Z,99.90
2018-09-06T10:46:43.606Z,99.90
2018-09-06T10:49:09.920Z,99.90
2018-09-06T10:51:36.208Z,99.90
2018-09-06T10:54:03.294Z,99.90
2018-09-06T10:56:31.268Z,99.90
2018-09-06T10:59:01.846Z,99.90
2018-09-06T11:01:28.917Z,99.90
2018-09-06T11:03:55.893Z,99.90
2018-09-06T11:06:24.264Z,99.90
2018-09-06T11:08:50.854Z,99.90
2018-09-06T11:11:17.820Z,99.90
2018-09-06T11:13:44.741Z,99.90
2018-09-06T11:16:11.541Z,99.90
2018-09-06T11:18:38.733Z,99.90
2018-09-06T11:21:05.916Z,99.90
2018-09-06T11:23:32.238Z,99.90
2018-09-06T11:25:58.529Z,99.90
2018-09-06T11:28:25.381Z,99.90
2018-09-06T11:30:51.734Z,99.90
2018-09-06T11:33:21.303Z,99.90
2018-09-06T11:35:50.377Z,99.90
2018-09-06T11:38:16.695Z,99.90
2018-09-06T11:40:43.742Z,99.90
2018-09-06T11:43:10.963Z,99.90
2018-09-06T11:45:37.343Z,99.90
2018-09-06T11:48:04.621Z,99.90
2018-09-06T11:50:31.066Z,99.90
2018-09-06T11:52:57.560Z,99.90
2018-09-06T11:55:23.882Z,99.90
2018-09-06T11:57:50.274Z,99.90
2018-09-06T12:00:18.614Z,99.90
2018-09-06T12:02:45.578Z,99.90
2018-09-06T12:05:12.260Z,99.90
2018-09-06T12:07:41.024Z,99.90
2018-09-06T12:10:11.224Z,99.90
2018-09-06T12:12:38.955Z,99.90
2018-09-06T12:15:06.892Z,99.90
2018-09-06T12:17:35.684Z,99.90
2018-09-06T12:20:09.581Z,99.90
2018-09-06T12:22:43.190Z,99.90
2018-09-06T12:30:48.775Z,99.90
2018-09-06T12:33:26.433Z,99.90
2018-09-06T12:35:56.882Z,99.90
2018-09-06T12:38:27.038Z,99.90
2018-09-06T12:40:56.313Z,99.90
2018-09-06T12:43:28.745Z,99.90
2018-09-06T12:46:02.037Z,99.90
2018-09-06T12:48:30.052Z,99.90
2018-09-06T12:50:57.277Z,99.90
2018-09-06T12:53:24.409Z,99.90
2018-09-06T12:55:50.770Z,99.90
2018-09-06T12:58:20.069Z,99.80
2018-09-06T13:00:47.262Z,99.30
2018-09-06T13:03:15.609Z,99.30
2018-09-06T13:05:42.022Z,99.10
2018-09-06T13:08:08.929Z,97.70
2018-09-06T13:10:37.015Z,97.50
2018-09-06T13:13:07.634Z,98.60
2018-09-06T13:15:34.341Z,98.60
2018-09-06T13:18:01.826Z,98.10
2018-09-06T13:20:30.530Z,97.90
2018-09-06T13:22:57.713Z,97.80
2018-09-06T13:25:25.257Z,97.00
2018-09-06T13:27:51.564Z,97.00
2018-09-06T13:30:19.357Z,96.60
2018-09-06T13:32:46.189Z,97.40
2018-09-06T13:35:18.741Z,97.60
2018-09-06T13:37:48.739Z,97.00
2018-09-06T13:40:16.107Z,96.60
2018-09-06T13:42:52.508Z,96.70
2018-09-06T13:45:20.499Z,97.20
2018-09-06T13:47:48.767Z,98.10
2018-09-06T13:50:16.673Z,98.30
2018-09-06T13:52:43.092Z,98.40
2018-09-06T13:55:09.420Z,98.90
2018-09-06T13:57:35.671Z,99.20
2018-09-06T14:00:02.072Z,99.50
2018-09-06T14:02:28.346Z,99.90
2018-09-06T14:04:54.645Z,99.90
2018-09-06T14:07:20.919Z,99.90
2018-09-06T14:09:47.255Z,99.90
2018-09-06T14:12:14.301Z,99.90
2018-09-06T14:14:41.366Z,99.90
2018-09-06T14:17:07.631Z,99.90
2018-09-06T14:19:33.934Z,99.90
2018-09-06T14:22:01.835Z,99.90
2018-09-06T14:24:28.204Z,99.90
2018-09-06T14:26:54.515Z,99.90
2018-09-06T14:29:20.786Z,99.90
2018-09-06T14:31:47.793Z,99.90
2018-09-06T14:34:14.130Z,99.90
2018-09-06T14:36:40.411Z,99.90
2018-09-06T14:39:06.841Z,99.90
2018-09-06T14:41:33.088Z,99.90
2018-09-06T14:44:00.195Z,99.90
2018-09-06T14:46:27.526Z,99.90
2018-09-06T14:48:54.928Z,99.90
2018-09-06T14:51:21.201Z,99.90
2018-09-06T14:53:47.494Z,99.90
2018-09-06T14:56:14.550Z,99.90
2018-09-06T14:58:42.416Z,99.90
2018-09-06T15:01:13.209Z,99.90
2018-09-06T15:03:39.539Z,99.90
2018-09-06T15:06:11.658Z,99.90
2018-09-06T15:08:38.959Z,99.90
2018-09-06T15:11:06.730Z,99.90
2018-09-06T15:13:34.188Z,99.90
2018-09-06T15:16:00.660Z,99.90
2018-09-06T15:18:27.290Z,99.90
2018-09-06T15:20:54.946Z,99.90
2018-09-06T15:23:22.498Z,99.90
2018-09-06T15:25:49.647Z,99.90
2018-09-06T15:28:16.620Z,99.90
2018-09-06T15:30:43.599Z,99.90
2018-09-06T15:33:10.102Z,99.90
2018-09-06T15:35:36.399Z,99.90
2018-09-06T15:38:02.956Z,99.90
2018-09-06T15:40:29.283Z,99.90
2018-09-06T15:42:57.173Z,99.90
2018-09-06T15:45:23.531Z,99.90
2018-09-06T15:47:51.067Z,99.90
2018-09-06T15:50:18.562Z,99.90
2018-09-06T15:52:45.284Z,99.90
2018-09-06T15:55:11.660Z,99.90
2018-09-06T15:57:38.511Z,99.90
2018-09-06T16:00:04.919Z,99.90
2018-09-06T16:02:31.504Z,99.90
2018-09-06T16:04:57.928Z,99.90
2018-09-06T16:07:24.985Z,99.90
2018-09-06T16:09:51.349Z,99.90
2018-09-06T16:12:17.660Z,99.90
2018-09-06T16:14:44.977Z,99.90
2018-09-06T16:17:12.316Z,99.90
2018-09-06T16:19:38.683Z,99.90
2018-09-06T16:22:05.034Z,99.90
2018-09-06T16:24:31.423Z,99.90
2018-09-06T16:26:57.844Z,99.90
2018-09-06T16:29:25.235Z,99.90
2018-09-06T16:31:51.575Z,99.90
2018-09-06T16:34:17.926Z,99.90
2018-09-06T16:36:44.191Z,99.90
2018-09-06T16:39:10.493Z,99.90
2018-09-06T16:41:36.777Z,99.90
2018-09-06T16:44:03.107Z,99.90
2018-09-06T16:46:30.157Z,99.90
2018-09-06T16:48:56.454Z,99.90
2018-09-06T16:51:22.733Z,99.90
2018-09-06T16:53:49.000Z,99.90
2018-09-06T16:56:15.758Z,99.90
2018-09-06T16:58:42.119Z,99.90
2018-09-06T17:01:08.507Z,99.90
2018-09-06T17:03:35.485Z,99.90
2018-09-06T17:06:01.863Z,99.90
2018-09-06T17:08:31.287Z,99.90
2018-09-06T17:10:57.757Z,99.90
2018-09-06T17:13:24.031Z,99.90
2018-09-06T17:15:51.122Z,99.90
2018-09-06T17:18:17.408Z,99.90
2018-09-06T17:20:44.402Z,99.90
2018-09-06T17:23:11.305Z,99.90
2018-09-06T17:25:37.716Z,99.90
2018-09-06T17:28:03.974Z,99.90
2018-09-06T17:30:31.497Z,99.90
2018-09-06T17:33:05.034Z,99.90
2018-09-06T17:35:41.770Z,99.90
2018-09-06T17:38:12.984Z,99.90
2018-09-06T17:40:46.220Z,99.90
2018-09-06T17:43:23.053Z,99.90
2018-09-06T17:45:56.280Z,99.90
2018-09-06T17:48:30.228Z,99.90
2018-09-06T17:51:03.661Z,99.90
2018-09-06T17:53:39.276Z,99.90
2018-09-06T17:56:11.200Z,99.90
2018-09-06T17:58:44.778Z,99.90
2018-09-06T18:01:18.444Z,99.90
2018-09-06T18:03:56.378Z,99.90
2018-09-06T18:06:27.801Z,99.90
2018-09-06T18:08:59.660Z,99.90
2018-09-06T18:11:31.715Z,99.90
2018-09-06T18:14:03.189Z,99.90
2018-09-06T18:16:38.736Z,99.90
2018-09-06T18:19:07.153Z,99.90
2018-09-06T18:21:35.800Z,99.90
2018-09-06T18:24:08.402Z,99.90
2018-09-06T18:26:43.325Z,99.90
2018-09-06T18:29:14.001Z,99.90
2018-09-06T18:31:51.979Z,99.90
2018-09-06T18:34:27.778Z,99.90
2018-09-06T18:37:01.197Z,99.90
2018-09-06T18:39:39.792Z,99.90
2018-09-06T18:42:16.455Z,99.90
2018-09-06T18:44:53.732Z,99.90
2018-09-06T18:47:23.073Z,99.90
2018-09-06T18:49:53.027Z,99.90
2018-09-06T18:52:22.124Z,99.90
2018-09-06T18:54:52.013Z,99.90
2018-09-06T18:57:20.187Z,99.90
2018-09-06T18:59:49.698Z,99.90
2018-09-06T19:02:19.929Z,99.90
2018-09-06T19:04:53.529Z,99.90
2018-09-06T19:07:23.186Z,99.90
2018-09-06T19:09:51.414Z,99.90
2018-09-06T19:12:21.831Z,99.90
2018-09-06T19:14:52.514Z,99.90
2018-09-06T19:17:21.558Z,99.90
2018-09-06T19:19:52.505Z,99.90
2018-09-06T19:22:25.592Z,99.90
2018-09-06T19:25:00.665Z,99.90
2018-09-06T19:27:34.880Z,99.90
2018-09-06T19:30:08.987Z,99.90
2018-09-06T19:32:39.694Z,99.90
2018-09-06T19:35:12.472Z,99.90
2018-09-06T19:37:41.248Z,99.90
2018-09-06T19:40:11.821Z,99.90
2018-09-06T19:42:41.336Z,99.90
2018-09-06T19:45:17.512Z,99.90
2018-09-06T19:47:44.803Z,99.90
2018-09-06T19:52:49.722Z,99.90
2018-09-06T19:55:21.531Z,99.90
2018-09-06T19:57:48.029Z,99.90
2018-09-06T20:00:14.321Z,99.90
2018-09-06T20:02:41.508Z,99.90
2018-09-06T20:05:07.826Z,99.90
2018-09-06T20:07:34.059Z,99.90
2018-09-06T20:10:00.342Z,99.90
2018-09-06T20:12:26.636Z,99.90
2018-09-06T20:14:53.663Z,99.90
2018-09-06T20:17:19.966Z,99.90
2018-09-06T20:19:46.200Z,99.90
2018-09-06T20:22:14.333Z,99.90
2018-09-06T20:24:40.655Z,99.90
2018-09-06T20:27:06.920Z,99.90
2018-09-06T20:29:35.393Z,99.90
2018-09-06T20:32:02.509Z,99.90
2018-09-06T20:34:30.355Z,99.90
2018-09-06T20:36:57.460Z,99.90
2018-09-06T20:39:26.010Z,99.90
2018-09-06T20:41:53.059Z,99.90
2018-09-06T20:44:20.033Z,99.90
2018-09-06T20:46:47.344Z,99.90
2018-09-06T20:49:14.177Z,99.90
2018-09-06T20:51:40.406Z,99.90
2018-09-06T20:54:06.677Z,99.90
2018-09-06T20:56:33.007Z,99.90
2018-09-06T20:58:59.266Z,99.90
2018-09-06T21:01:26.258Z,99.90
2018-09-06T21:03:52.532Z,99.90
2018-09-06T21:06:19.520Z,99.90
2018-09-06T21:08:47.316Z,99.90
2018-09-06T21:11:13.583Z,99.90
2018-09-06T21:13:41.130Z,99.90
2018-09-06T21:16:08.901Z,99.90
2018-09-06T21:18:35.921Z,99.90
2018-09-06T21:21:02.324Z,99.90
2018-09-06T21:23:28.645Z,99.90
2018-09-06T21:25:59.058Z,99.90
2018-09-06T21:28:25.393Z,99.90
2018-09-06T21:30:51.650Z,99.90
2018-09-06T21:33:18.638Z,99.90
2018-09-06T21:35:45.451Z,99.90
2018-09-06T21:38:11.759Z,99.90
2018-09-06T21:40:39.160Z,99.90
2018-09-06T21:43:06.202Z,99.90
2018-09-06T21:45:34.023Z,99.90
2018-09-06T21:48:00.306Z,99.90
2018-09-06T21:50:26.611Z,99.90
2018-09-06T21:52:52.893Z,99.90
2018-09-06T21:55:19.150Z,99.90
2018-09-06T21:57:45.548Z,99.90
2018-09-06T22:00:11.841Z,99.90
2018-09-06T22:02:38.134Z,99.90
2018-09-06T22:05:05.174Z,99.90
2018-09-06T22:07:31.516Z,99.90
2018-09-06T22:09:58.601Z,99.90
2018-09-06T22:12:24.843Z,99.90
2018-09-06T22:14:51.129Z,99.90
2018-09-06T22:17:19.416Z,99.90
2018-09-06T22:19:46.401Z,99.90
2018-09-06T22:22:12.735Z,99.90
2018-09-06T22:24:42.026Z,99.90
2018-09-06T22:30:07.545Z,99.90
2018-09-06T22:32:33.825Z,99.90
2018-09-06T22:35:00.776Z,99.90
2018-09-06T22:37:28.931Z,99.90
2018-09-06T22:39:57.082Z,99.90
2018-09-06T22:42:23.861Z,99.90
2018-09-06T22:44:50.193Z,99.90
2018-09-06T22:47:16.440Z,99.90
2018-09-06T22:49:44.406Z,99.90
2018-09-06T22:52:10.674Z,99.90
2018-09-06T22:54:36.951Z,99.90
2018-09-06T22:57:03.280Z,99.90
2018-09-06T22:59:30.202Z,99.90
2018-09-06T23:01:59.891Z,99.90
2018-09-06T23:04:26.201Z,99.90
2018-09-06T23:06:53.214Z,99.90
2018-09-06T23:09:19.465Z,99.90
2018-09-06T23:11:45.735Z,99.90
2018-09-06T23:14:12.742Z,99.90
2018-09-06T23:16:39.114Z,99.90
2018-09-06T23:19:05.371Z,99.90
2018-09-06T23:21:31.619Z,99.90
2018-09-06T23:23:57.907Z,99.90
2018-09-06T23:26:24.165Z,99.90
2018-09-06T23:28:50.476Z,99.90
2018-09-06T23:31:16.774Z,99.90
2018-09-06T23:33:43.013Z,99.90
2018-09-06T23:36:09.297Z,99.90
2018-09-06T23:38:35.618Z,99.90
2018-09-06T23:41:01.908Z,99.90
2018-09-06T23:43:28.198Z,99.90
2018-09-06T23:45:54.462Z,99.90
2018-09-06T23:48:21.442Z,99.90
2018-09-06T23:50:48.493Z,99.90
2018-09-06T23:53:15.509Z,99.90
2018-09-06T23:55:41.749Z,99.90
2018-09-06T23:58:08.045Z,99.90
